createdAt,value
2023-03-27T00:00:13.732Z,2.95
2023-03-27T00:03:03.965Z,2.98
2023-03-27T00:05:33.081Z,3.02
2023-03-27T00:08:02.542Z,3.05
2023-03-27T00:10:32.402Z,3.08
2023-03-27T00:13:04.010Z,3.09
2023-03-27T00:15:38.077Z,3.09
2023-03-27T00:18:10.389Z,3.10
2023-03-27T00:20:41.078Z,3.11
2023-03-27T00:23:13.943Z,3.10
2023-03-27T00:25:45.219Z,3.09
2023-03-27T00:28:15.559Z,3.09
2023-03-27T00:30:45.434Z,3.11
2023-03-27T00:33:15.161Z,3.15
2023-03-27T00:35:49.494Z,3.16
2023-03-27T00:38:21.444Z,3.13
2023-03-27T00:40:56.090Z,3.09
2023-03-27T00:43:36.851Z,3.05
2023-03-27T00:46:28.159Z,3.02
2023-03-27T00:49:03.706Z,2.99
2023-03-27T00:51:35.475Z,2.95
2023-03-27T00:54:07.082Z,2.92
2023-03-27T00:56:39.319Z,2.92
2023-03-27T00:59:17.272Z,2.90
2023-03-27T01:01:48.702Z,2.86
2023-03-27T01:04:22.027Z,2.84
2023-03-27T01:06:57.581Z,2.82
2023-03-27T01:09:28.248Z,2.84
2023-03-27T01:12:24.661Z,2.86
2023-03-27T01:15:00.827Z,2.84
2023-03-27T01:17:49.970Z,2.82
2023-03-27T01:20:43.238Z,2.84
2023-03-27T01:23:16.381Z,2.84
2023-03-27T01:26:35.618Z,2.85
2023-03-27T01:29:23.666Z,2.83
2023-03-27T01:32:08.277Z,2.83
2023-03-27T01:35:13.998Z,2.89
2023-03-27T01:38:16.618Z,2.92
2023-03-27T01:41:09.985Z,2.94
2023-03-27T01:43:54.368Z,3.01
2023-03-27T01:46:44.375Z,3.10
2023-03-27T01:49:40.416Z,3.15
2023-03-27T01:52:20.495Z,3.21
2023-03-27T01:54:59.455Z,3.27
2023-03-27T01:57:35.039Z,3.38
2023-03-27T02:00:19.636Z,3.46
2023-03-27T02:03:01.030Z,3.55
2023-03-27T02:05:37.461Z,3.63
2023-03-27T02:08:15.476Z,3.73
2023-03-27T02:10:52.016Z,3.84
2023-03-27T02:13:32.299Z,3.95
2023-03-27T02:16:04.840Z,4.07
2023-03-27T02:18:42.083Z,4.18
2023-03-27T02:21:12.412Z,4.29
2023-03-27T02:23:45.411Z,4.39
2023-03-27T02:26:17.250Z,4.47
2023-03-27T02:29:07.103Z,4.54
2023-03-27T02:32:19.649Z,4.60
2023-03-27T02:35:13.952Z,4.66
2023-03-27T02:37:58.182Z,4.68
2023-03-27T02:41:04.918Z,4.74
2023-03-27T02:44:07.878Z,4.81
2023-03-27T02:47:18.377Z,4.86
2023-03-27T02:50:02.749Z,4.93
2023-03-27T02:52:38.811Z,4.98
2023-03-27T02:55:25.159Z,5.00
2023-03-27T02:58:01.976Z,5.04
2023-03-27T03:00:49.564Z,5.11
2023-03-27T03:04:12.730Z,5.18
2023-03-27T03:07:08.074Z,5.24
2023-03-27T03:09:40.348Z,5.28
2023-03-27T03:12:12.005Z,5.32
2023-03-27T03:14:48.108Z,5.35
2023-03-27T03:17:19.036Z,5.42
2023-03-27T03:19:50.343Z,5.48
2023-03-27T03:22:19.494Z,5.54
2023-03-27T03:24:49.673Z,5.59
2023-03-27T03:27:22.944Z,5.64
2023-03-27T03:30:01.484Z,5.66
2023-03-27T03:32:32.632Z,5.67
2023-03-27T03:35:03.847Z,5.68
2023-03-27T03:37:39.617Z,5.68
2023-03-27T03:40:15.274Z,5.66
2023-03-27T03:42:52.696Z,5.64
2023-03-27T03:45:27.031Z,5.62
2023-03-27T03:47:56.490Z,5.60
2023-03-27T03:50:26.436Z,5.62
2023-03-27T03:52:55.868Z,5.66
2023-03-27T03:55:26.313Z,5.70
2023-03-27T03:57:56.850Z,5.69
2023-03-27T04:00:28.733Z,5.67
2023-03-27T04:02:59.030Z,5.64
2023-03-27T04:05:28.427Z,5.61
2023-03-27T04:08:03.112Z,5.59
2023-03-27T04:10:50.681Z,5.64
2023-03-27T04:13:40.920Z,5.68
2023-03-27T04:16:20.359Z,5.72
2023-03-27T04:18:55.133Z,5.76
2023-03-27T04:21:27.302Z,5.75
2023-03-27T04:24:03.035Z,5.72
2023-03-27T04:26:53.233Z,5.65
2023-03-27T04:29:32.267Z,5.61
2023-03-27T04:32:01.813Z,5.59
2023-03-27T04:34:52.901Z,5.57
2023-03-27T04:37:25.258Z,5.55
2023-03-27T04:40:14.458Z,5.53
2023-03-27T04:42:45.393Z,5.52
2023-03-27T04:45:20.924Z,5.53
2023-03-27T04:47:50.986Z,5.56
2023-03-27T04:50:21.774Z,5.61
2023-03-27T04:52:52.175Z,5.68
2023-03-27T04:55:26.852Z,5.75
2023-03-27T04:57:58.101Z,5.82
2023-03-27T05:00:28.387Z,5.90
2023-03-27T05:03:19.934Z,5.98
2023-03-27T05:06:19.957Z,6.12
2023-03-27T05:08:51.374Z,6.21
2023-03-27T05:11:28.387Z,6.31
2023-03-27T05:13:57.382Z,6.40
2023-03-27T05:16:28.111Z,6.47
2023-03-27T05:19:00.622Z,6.57
2023-03-27T05:21:29.968Z,6.65
2023-03-27T05:23:59.996Z,6.72
2023-03-27T05:26:29.361Z,6.76
2023-03-27T05:29:00.012Z,6.79
2023-03-27T05:31:30.105Z,6.81
2023-03-27T05:34:12.553Z,6.83
2023-03-27T05:36:43.500Z,6.87
2023-03-27T05:39:13.173Z,6.89
2023-03-27T05:41:45.028Z,6.92
2023-03-27T05:44:20.273Z,6.93
2023-03-27T05:46:49.257Z,6.93
2023-03-27T05:49:24.401Z,6.87
2023-03-27T05:51:58.576Z,6.83
2023-03-27T05:54:27.096Z,6.80
2023-03-27T05:57:09.971Z,6.76
2023-03-27T05:59:40.042Z,6.76
2023-03-27T06:02:21.395Z,6.76
2023-03-27T06:05:04.860Z,6.77
2023-03-27T06:07:43.086Z,6.80
2023-03-27T06:10:14.747Z,6.83
2023-03-27T06:13:09.154Z,6.85
2023-03-27T06:15:47.950Z,6.89
2023-03-27T06:18:20.988Z,6.93
2023-03-27T06:20:50.716Z,6.99
2023-03-27T06:23:19.930Z,7.06
2023-03-27T06:25:49.114Z,7.18
2023-03-27T06:28:18.016Z,7.36
2023-03-27T06:30:48.861Z,7.53
2023-03-27T06:33:38.439Z,7.72
2023-03-27T06:36:09.222Z,7.87
2023-03-27T06:38:39.171Z,8.00
2023-03-27T06:41:08.427Z,8.09
2023-03-27T06:43:54.357Z,8.19
2023-03-27T06:46:44.550Z,8.26
2023-03-27T06:49:41.297Z,8.32
2023-03-27T06:52:16.981Z,8.36
2023-03-27T06:54:46.655Z,8.42
2023-03-27T06:57:16.308Z,8.49
2023-03-27T06:59:54.568Z,8.54
2023-03-27T07:02:26.365Z,8.59
2023-03-27T07:05:04.866Z,8.62
2023-03-27T07:07:44.181Z,8.68
2023-03-27T07:10:13.877Z,8.56
2023-03-27T07:12:48.249Z,8.50
2023-03-27T07:15:19.003Z,8.46
2023-03-27T07:17:57.976Z,8.45
2023-03-27T07:20:28.490Z,8.44
2023-03-27T07:22:59.404Z,8.46
2023-03-27T07:26:02.190Z,8.52
2023-03-27T07:28:52.212Z,8.54
2023-03-27T07:31:35.202Z,8.55
2023-03-27T07:34:11.850Z,8.53
2023-03-27T07:36:59.732Z,8.48
2023-03-27T07:39:29.648Z,8.43
2023-03-27T07:41:59.153Z,8.39
2023-03-27T07:44:55.999Z,8.30
2023-03-27T07:47:26.439Z,8.22
2023-03-27T07:49:55.620Z,8.18
2023-03-27T07:52:24.915Z,8.13
2023-03-27T07:55:01.393Z,8.07
2023-03-27T07:57:57.256Z,8.02
2023-03-27T08:00:32.739Z,7.96
2023-03-27T08:03:10.267Z,7.92
2023-03-27T08:05:44.272Z,7.90
2023-03-27T08:08:16.435Z,7.82
2023-03-27T08:11:01.294Z,7.80
2023-03-27T08:13:34.283Z,7.84
2023-03-27T08:16:15.237Z,7.90
2023-03-27T08:18:46.583Z,7.91
2023-03-27T08:21:16.436Z,7.93
2023-03-27T08:23:45.916Z,7.97
2023-03-27T08:26:44.193Z,8.02
2023-03-27T08:29:14.631Z,8.09
2023-03-27T08:31:44.538Z,8.20
2023-03-27T08:34:13.317Z,8.32
2023-03-27T08:36:46.821Z,8.42
2023-03-27T08:39:16.621Z,8.51
2023-03-27T08:42:00.767Z,8.61
2023-03-27T08:44:37.661Z,8.72
2023-03-27T08:47:16.386Z,8.85
2023-03-27T08:50:02.983Z,8.99
2023-03-27T08:52:47.332Z,9.11
2023-03-27T08:55:47.393Z,9.23
2023-03-27T08:58:22.104Z,9.33
2023-03-27T09:01:33.914Z,9.39
2023-03-27T09:04:21.413Z,9.46
2023-03-27T09:07:00.291Z,9.46
2023-03-27T09:09:59.585Z,9.44
2023-03-27T09:13:16.979Z,9.47
2023-03-27T09:16:03.988Z,9.51
2023-03-27T09:19:00.275Z,9.52
2023-03-27T09:21:51.832Z,9.54
2023-03-27T09:24:42.309Z,9.56
2023-03-27T09:27:44.682Z,9.61
2023-03-27T09:30:40.240Z,9.63
2023-03-27T09:33:13.996Z,9.65
2023-03-27T09:35:44.719Z,9.66
2023-03-27T09:38:19.793Z,9.68
2023-03-27T09:40:55.240Z,9.70
2023-03-27T09:43:57.302Z,9.72
2023-03-27T09:46:27.642Z,9.77
2023-03-27T09:49:14.535Z,9.77
2023-03-27T09:51:50.435Z,9.78
2023-03-27T09:54:32.712Z,9.83
2023-03-27T09:57:11.467Z,9.87
2023-03-27T10:00:01.893Z,9.93
2023-03-27T10:02:31.953Z,9.97
2023-03-27T10:05:28.680Z,10.04
2023-03-27T10:07:59.071Z,10.11
2023-03-27T10:10:35.155Z,10.17
2023-03-27T10:13:12.136Z,10.26
2023-03-27T10:15:46.141Z,10.34
2023-03-27T10:18:29.604Z,10.40
2023-03-27T10:21:12.009Z,10.49
2023-03-27T10:23:44.339Z,10.56
2023-03-27T10:26:26.251Z,10.61
2023-03-27T10:29:02.131Z,10.67
2023-03-27T10:31:53.618Z,10.73
2023-03-27T10:34:58.407Z,10.77
2023-03-27T10:37:34.583Z,10.80
2023-03-27T10:40:25.008Z,10.84
2023-03-27T10:43:06.706Z,10.87
2023-03-27T10:46:05.159Z,10.92
2023-03-27T10:49:10.840Z,10.93
2023-03-27T10:52:09.639Z,10.96
2023-03-27T10:55:02.297Z,10.98
2023-03-27T10:57:34.542Z,11.01
2023-03-27T11:00:23.083Z,11.05
2023-03-27T11:03:27.524Z,11.09
2023-03-27T11:06:04.069Z,11.13
2023-03-27T11:08:58.715Z,11.17
2023-03-27T11:11:41.488Z,11.23
2023-03-27T11:14:18.921Z,11.29
2023-03-27T11:16:56.226Z,11.32
2023-03-27T11:19:52.517Z,11.39
2023-03-27T11:22:44.958Z,11.46
2023-03-27T11:25:42.310Z,11.57
2023-03-27T11:28:35.570Z,11.70
2023-03-27T11:31:16.007Z,11.95
2023-03-27T11:34:02.336Z,12.23
2023-03-27T11:36:35.362Z,12.51
2023-03-27T11:39:36.589Z,12.77
2023-03-27T11:42:18.254Z,13.01
2023-03-27T11:44:48.587Z,13.18
2023-03-27T11:47:49.756Z,13.27
2023-03-27T11:50:33.875Z,13.28
2023-03-27T11:53:33.389Z,13.24
2023-03-27T11:56:52.914Z,13.22
2023-03-27T11:59:55.546Z,13.19
2023-03-27T12:02:34.244Z,13.23
2023-03-27T12:05:15.964Z,13.27
2023-03-27T12:08:07.368Z,13.33
2023-03-27T12:10:39.567Z,13.35
2023-03-27T12:13:42.071Z,13.39
2023-03-27T12:16:46.262Z,13.38
2023-03-27T12:19:42.579Z,13.46
2023-03-27T12:22:44.537Z,13.52
2023-03-27T12:25:45.888Z,13.53
2023-03-27T12:29:23.400Z,13.59
2023-03-27T12:32:22.224Z,13.66
2023-03-27T12:34:53.587Z,13.70
2023-03-27T12:37:31.240Z,13.71
2023-03-27T12:40:01.553Z,13.74
2023-03-27T12:42:44.574Z,13.77
2023-03-27T12:45:17.049Z,13.73
2023-03-27T12:48:17.428Z,13.80
2023-03-27T12:50:52.931Z,13.76
2023-03-27T12:53:30.606Z,13.82
2023-03-27T12:56:14.143Z,13.91
2023-03-27T12:58:45.015Z,13.95
2023-03-27T13:01:34.023Z,14.11
2023-03-27T13:04:30.269Z,14.30
2023-03-27T13:07:09.013Z,14.26
2023-03-27T13:10:08.716Z,14.26
2023-03-27T13:12:56.044Z,14.28
2023-03-27T13:15:55.782Z,14.06
2023-03-27T13:19:13.173Z,13.85
2023-03-27T13:22:18.864Z,13.68
2023-03-27T13:25:13.758Z,13.66
2023-03-27T13:28:12.108Z,13.55
2023-03-27T13:30:56.573Z,13.28
2023-03-27T13:34:29.485Z,13.23
2023-03-27T13:37:08.071Z,13.31
2023-03-27T13:39:56.527Z,13.34
2023-03-27T13:42:37.325Z,13.35
2023-03-27T13:45:23.802Z,13.49
2023-03-27T13:48:54.533Z,13.40
2023-03-27T13:51:50.678Z,13.22
2023-03-27T13:54:38.605Z,13.03
2023-03-27T13:57:32.373Z,12.80
2023-03-27T14:00:28.312Z,12.70
2023-03-27T14:03:23.036Z,12.60
2023-03-27T14:06:40.030Z,12.56
2023-03-27T14:09:27.981Z,12.40
2023-03-27T14:12:39.033Z,12.25
2023-03-27T14:15:42.899Z,12.15
2023-03-27T14:18:31.068Z,11.93
2023-03-27T14:21:03.811Z,11.86
2023-03-27T14:24:02.139Z,11.73
2023-03-27T14:26:45.564Z,11.68
2023-03-27T14:29:21.547Z,11.53
2023-03-27T14:31:52.818Z,11.47
2023-03-27T14:34:43.467Z,11.48
2023-03-27T14:37:30.963Z,11.31
2023-03-27T14:40:21.180Z,11.22
2023-03-27T14:42:51.520Z,11.16
2023-03-27T14:45:24.249Z,11.21
2023-03-27T14:48:14.744Z,11.15
2023-03-27T14:50:48.367Z,11.17
2023-03-27T14:53:26.558Z,11.16
2023-03-27T14:56:11.772Z,11.13
2023-03-27T14:59:06.293Z,11.06
2023-03-27T15:01:48.865Z,11.05
2023-03-27T15:04:18.675Z,10.98
2023-03-27T15:06:50.242Z,10.99
2023-03-27T15:09:42.190Z,10.97
2023-03-27T15:12:28.713Z,10.94
2023-03-27T15:14:59.820Z,10.91
2023-03-27T15:17:31.210Z,10.82
2023-03-27T15:20:11.587Z,10.68
2023-03-27T15:22:56.193Z,10.53
2023-03-27T15:25:44.874Z,10.46
2023-03-27T15:28:34.117Z,10.37
2023-03-27T15:31:05.025Z,10.28
2023-03-27T15:33:43.970Z,10.14
2023-03-27T15:36:28.708Z,10.04
2023-03-27T15:39:00.952Z,9.95
2023-03-27T15:41:32.665Z,9.90
2023-03-27T15:44:09.464Z,9.84
2023-03-27T15:46:54.466Z,9.79
2023-03-27T15:49:30.773Z,9.75
2023-03-27T15:52:01.808Z,9.71
2023-03-27T15:54:32.234Z,9.71
2023-03-27T15:57:10.384Z,9.71
2023-03-27T15:59:52.017Z,9.69
2023-03-27T16:02:25.804Z,9.69
2023-03-27T16:04:57.659Z,9.68
2023-03-27T16:07:31.802Z,9.69
2023-03-27T16:10:05.342Z,9.66
2023-03-27T16:12:39.721Z,9.61
2023-03-27T16:15:28.381Z,9.59
2023-03-27T16:18:04.722Z,9.53
2023-03-27T16:20:35.684Z,9.48
2023-03-27T16:23:04.689Z,9.40
2023-03-27T16:25:33.769Z,9.34
2023-03-27T16:28:02.935Z,9.25
2023-03-27T16:30:39.054Z,9.19
2023-03-27T16:33:16.814Z,9.12
2023-03-27T16:35:46.158Z,9.07
2023-03-27T16:38:15.321Z,9.01
2023-03-27T16:40:45.235Z,8.96
2023-03-27T16:43:15.100Z,8.90
2023-03-27T16:45:44.699Z,8.85
2023-03-27T16:48:13.899Z,8.78
2023-03-27T16:50:42.751Z,8.73
2023-03-27T16:53:11.431Z,8.69
2023-03-27T16:55:40.421Z,8.67
2023-03-27T16:58:09.411Z,8.64
2023-03-27T17:00:38.508Z,8.63
2023-03-27T17:03:07.186Z,8.61
2023-03-27T17:05:36.500Z,8.57
2023-03-27T17:08:07.309Z,8.56
2023-03-27T17:10:37.290Z,8.53
2023-03-27T17:13:05.829Z,8.50
2023-03-27T17:15:39.130Z,8.48
2023-03-27T17:18:07.757Z,8.46
2023-03-27T17:20:36.802Z,8.43
2023-03-27T17:23:06.301Z,8.38
2023-03-27T17:25:34.896Z,8.34
2023-03-27T17:28:04.594Z,8.31
2023-03-27T17:30:39.730Z,8.26
2023-03-27T17:33:13.399Z,8.23
2023-03-27T17:35:42.483Z,8.21
2023-03-27T17:38:11.728Z,8.19
2023-03-27T17:40:42.318Z,8.16
2023-03-27T17:43:12.660Z,8.13
2023-03-27T17:45:42.713Z,8.12
2023-03-27T17:48:11.919Z,8.11
2023-03-27T17:50:40.894Z,8.06
2023-03-27T17:53:09.483Z,8.02
2023-03-27T17:55:38.775Z,7.99
2023-03-27T17:58:10.328Z,7.97
2023-03-27T18:00:41.632Z,7.94
2023-03-27T18:03:10.323Z,7.90
2023-03-27T18:05:41.030Z,7.89
2023-03-27T18:08:12.378Z,7.88
2023-03-27T18:10:48.501Z,7.89
2023-03-27T18:13:20.874Z,7.89
2023-03-27T18:15:58.747Z,7.90
2023-03-27T18:18:28.586Z,7.90
2023-03-27T18:20:57.174Z,7.88
2023-03-27T18:23:25.789Z,7.84
2023-03-27T18:25:55.788Z,7.80
2023-03-27T18:28:25.165Z,7.79
2023-03-27T18:31:02.310Z,7.74
2023-03-27T18:33:31.157Z,7.70
2023-03-27T18:36:00.440Z,7.66
2023-03-27T18:38:29.546Z,7.64
2023-03-27T18:41:00.170Z,7.62
2023-03-27T18:43:29.155Z,7.61
2023-03-27T18:46:00.059Z,7.59
2023-03-27T18:48:31.171Z,7.57
2023-03-27T18:51:03.129Z,7.53
2023-03-27T18:53:32.404Z,7.51
2023-03-27T18:56:01.432Z,7.48
2023-03-27T18:58:31.715Z,7.47
2023-03-27T19:01:00.434Z,7.45
2023-03-27T19:03:35.401Z,7.43
2023-03-27T19:06:06.765Z,7.36
2023-03-27T19:08:39.055Z,7.34
2023-03-27T19:11:09.301Z,7.45
2023-03-27T19:13:57.005Z,7.52
2023-03-27T19:16:37.189Z,7.60
2023-03-27T19:19:37.594Z,7.63
2023-03-27T19:22:22.251Z,7.68
2023-03-27T19:24:57.798Z,7.64
2023-03-27T19:27:28.542Z,7.65
2023-03-27T19:30:11.428Z,7.67
2023-03-27T19:32:40.800Z,7.60
2023-03-27T19:35:10.058Z,7.60
2023-03-27T19:37:38.644Z,7.56
2023-03-27T19:40:08.245Z,7.49
2023-03-27T19:42:36.919Z,7.46
2023-03-27T19:45:06.856Z,7.44
2023-03-27T19:47:35.844Z,7.39
2023-03-27T19:50:07.277Z,7.37
2023-03-27T19:53:08.122Z,7.33
2023-03-27T19:55:38.148Z,7.31
2023-03-27T19:58:06.836Z,7.29
2023-03-27T20:00:38.894Z,7.26
2023-03-27T20:03:10.653Z,7.24
2023-03-27T20:05:40.777Z,7.24
2023-03-27T20:08:09.461Z,7.23
2023-03-27T20:10:38.443Z,7.21
2023-03-27T20:13:06.959Z,7.17
2023-03-27T20:15:35.529Z,7.16
2023-03-27T20:18:05.001Z,7.18
2023-03-27T20:20:34.107Z,7.16
2023-03-27T20:23:03.348Z,7.17
2023-03-27T20:25:34.554Z,7.12
2023-03-27T20:28:05.802Z,7.12
2023-03-27T20:30:41.651Z,7.10
2023-03-27T20:33:10.257Z,7.11
2023-03-27T20:35:41.946Z,7.05
2023-03-27T20:38:12.425Z,7.06
2023-03-27T20:40:53.167Z,7.01
2023-03-27T20:43:27.479Z,6.99
2023-03-27T20:45:59.291Z,7.00
2023-03-27T20:48:32.769Z,6.95
2023-03-27T20:51:07.011Z,6.95
2023-03-27T20:53:40.687Z,6.95
2023-03-27T20:56:12.745Z,6.89
2023-03-27T20:58:42.892Z,6.91
2023-03-27T21:01:13.308Z,6.88
2023-03-27T21:03:46.390Z,6.89
2023-03-27T21:06:18.912Z,6.83
2023-03-27T21:08:48.578Z,6.78
2023-03-27T21:11:17.933Z,6.76
2023-03-27T21:13:46.451Z,6.72
2023-03-27T21:16:15.112Z,6.70
2023-03-27T21:18:43.826Z,6.68
2023-03-27T21:21:12.610Z,6.65
2023-03-27T21:23:41.823Z,6.64
2023-03-27T21:26:10.742Z,6.60
2023-03-27T21:28:40.510Z,6.58
2023-03-27T21:31:11.043Z,6.61
2023-03-27T21:33:39.524Z,6.54
2023-03-27T21:36:10.266Z,6.53
2023-03-27T21:38:40.213Z,6.50
2023-03-27T21:41:11.051Z,6.44
2023-03-27T21:43:40.021Z,6.40
2023-03-27T21:46:09.643Z,6.37
2023-03-27T21:48:41.164Z,6.34
2023-03-27T21:51:10.569Z,6.31
2023-03-27T21:53:40.607Z,6.30
2023-03-27T21:56:09.982Z,6.27
2023-03-27T21:58:39.202Z,6.24
2023-03-27T22:01:08.216Z,6.20
2023-03-27T22:03:38.298Z,6.18
2023-03-27T22:06:12.368Z,6.13
2023-03-27T22:08:43.651Z,6.14
2023-03-27T22:11:13.480Z,6.10
2023-03-27T22:13:43.740Z,6.07
2023-03-27T22:16:16.037Z,6.06
2023-03-27T22:18:45.688Z,5.98
2023-03-27T22:21:22.586Z,5.64
2023-03-27T22:23:54.169Z,5.45
2023-03-27T22:26:26.577Z,5.29
2023-03-27T22:28:56.757Z,5.10
2023-03-27T22:31:28.057Z,4.88
2023-03-27T22:33:57.131Z,4.74
2023-03-27T22:36:27.451Z,4.52
2023-03-27T22:38:56.855Z,4.42
2023-03-27T22:41:26.978Z,4.18
2023-03-27T22:43:56.996Z,4.05
2023-03-27T22:46:26.774Z,3.91
2023-03-27T22:48:58.023Z,3.70
2023-03-27T22:51:30.347Z,3.53
2023-03-27T22:54:00.052Z,3.38
2023-03-27T22:56:29.023Z,3.22
2023-03-27T22:58:58.211Z,3.10
2023-03-27T23:01:27.039Z,3.05
2023-03-27T23:03:56.263Z,2.89
2023-03-27T23:06:26.005Z,2.90
2023-03-27T23:08:55.528Z,2.77
2023-03-27T23:11:25.224Z,2.75
2023-03-27T23:13:54.018Z,2.71
2023-03-27T23:16:23.353Z,2.59
2023-03-27T23:18:52.829Z,2.55
2023-03-27T23:21:21.713Z,2.51
2023-03-27T23:23:50.596Z,2.36
2023-03-27T23:26:21.770Z,2.29
2023-03-27T23:28:51.252Z,2.18
2023-03-27T23:31:21.559Z,2.10
2023-03-27T23:33:52.140Z,2.06
2023-03-27T23:36:25.123Z,1.85
2023-03-27T23:38:56.430Z,1.74
2023-03-27T23:41:25.541Z,1.54
2023-03-27T23:43:55.797Z,1.51
2023-03-27T23:46:25.094Z,1.51
2023-03-27T23:48:54.152Z,1.34
2023-03-27T23:51:24.363Z,1.37
2023-03-27T23:53:53.409Z,1.32
2023-03-27T23:56:22.215Z,1.23
2023-03-27T23:58:51.957Z,1.15
